.
WxDataArchive / Data Records for 2008-04-19
2008-04-18 April 2008 2008-04-20

Data Records for Saturday, 19 April 2008

Time	Temp	Chill	HIndex	Humid	Dewpt	 Wind 	HiWind	WindDir	Rain 	Barom 
-----	----	-----	------	-----	-----	------	------	-------	-----	----- 
00:00	58.4	58.4	58.4	61	45.0	0	0	---	0.00	29.771 
00:05	58.4	58.4	58.4	62	45.4	0	0	---	0.00	29.768 
00:10	58.4	58.4	58.4	63	45.9	0	0	---	0.00	29.769 
00:15	58.4	58.4	58.4	63	45.9	0	0	---	0.00	29.771 
00:20	58.3	58.3	58.3	62	45.3	0	0	---	0.00	29.768 
00:25	58.3	58.3	58.3	61	44.9	0	1	135	0.00	29.769 
00:30	58.7	58.7	58.7	60	44.8	1	5	135	0.00	29.767 
00:35	59.2	59.2	59.2	59	44.9	1	5	112	0.00	29.768 
00:40	59.2	59.2	59.2	59	44.9	0	1	90	0.00	29.765 
00:45	59.2	59.2	59.2	59	44.9	0	1	90	0.00	29.764 
00:50	59.2	59.2	59.2	60	45.3	0	1	90	0.00	29.763 
00:55	59.0	59.0	59.0	61	45.6	0	0	---	0.00	29.761 
01:00	58.7	58.7	58.7	61	45.3	0	0	---	0.00	29.760 
01:05	58.4	58.4	58.4	62	45.4	0	0	---	0.00	29.758 
01:10	58.0	58.0	58.0	63	45.5	0	0	---	0.00	29.758 
01:15	57.5	57.5	57.5	64	45.4	0	0	---	0.00	29.756 
01:20	57.0	57.0	57.0	65	45.4	1	4	90	0.00	29.771 
01:25	57.3	57.3	57.3	61	44.0	1	3	248	0.00	29.761 
01:30	57.8	57.8	57.8	60	44.0	0	1	248	0.00	29.759 
01:35	57.8	57.8	57.8	60	44.0	0	0	---	0.00	29.758 
01:40	57.6	57.6	57.6	60	43.8	0	0	---	0.00	29.758 
01:45	57.3	57.3	57.3	61	44.0	0	0	---	0.00	29.759 
01:50	57.0	57.0	57.0	61	43.7	0	0	---	0.00	29.757 
01:55	56.7	56.7	56.7	62	43.8	0	0	---	0.00	29.754 
02:00	56.5	56.5	56.5	63	44.1	0	0	---	0.00	29.756 
02:05	56.2	56.2	56.2	64	44.2	0	0	---	0.00	29.756 
02:10	55.9	55.9	55.9	64	43.9	0	0	---	0.00	29.758 
02:15	55.7	55.7	55.7	65	44.1	0	0	---	0.00	29.758 
02:20	55.4	55.4	55.4	66	44.2	0	0	---	0.00	29.758 
02:25	55.4	55.4	55.4	67	44.6	0	1	248	0.00	29.754 
02:30	55.3	55.3	55.3	68	44.9	0	0	---	0.00	29.751 
02:35	55.3	55.3	55.3	71	46.1	0	0	---	0.00	29.743 
02:40	55.3	55.3	55.3	72	46.4	0	0	---	0.00	29.746 
02:45	55.3	55.3	55.3	72	46.4	0	0	---	0.00	29.755 
02:50	55.1	55.1	55.1	71	45.9	0	0	---	0.00	29.757 
02:55	55.0	55.0	55.0	70	45.4	0	0	---	0.00	29.757 
03:00	54.8	54.8	54.8	71	45.6	0	0	---	0.00	29.757 
03:05	54.5	54.5	54.5	72	45.7	0	0	---	0.00	29.753 
03:10	54.2	54.2	54.2	72	45.4	0	0	---	0.00	29.758 
03:15	53.9	53.9	53.9	73	45.4	0	0	---	0.00	29.754 
03:20	53.6	53.6	53.6	74	45.5	0	0	---	0.00	29.749 
03:25	53.3	53.3	53.3	75	45.6	0	0	---	0.00	29.748 
03:30	53.1	53.1	53.1	76	45.7	0	0	---	0.00	29.743 
03:35	52.9	52.9	52.9	77	45.9	0	0	---	0.00	29.744 
03:40	52.6	52.6	52.6	77	45.6	0	0	---	0.00	29.742 
03:45	52.5	52.5	52.5	77	45.5	0	0	---	0.00	29.741 
03:50	52.3	52.3	52.3	77	45.3	0	0	---	0.00	29.741 
03:55	52.3	52.3	52.3	77	45.3	0	0	---	0.00	29.740 
04:00	52.2	52.2	52.2	77	45.2	0	0	---	0.00	29.737 
04:05	52.2	52.2	52.2	77	45.2	0	0	---	0.00	29.736 
04:10	52.0	52.0	52.0	78	45.4	0	0	---	0.00	29.733 
04:15	51.7	51.7	51.7	78	45.1	0	0	---	0.00	29.731 
04:20	51.6	51.6	51.6	78	45.0	0	0	---	0.00	29.730 
04:25	51.4	51.4	51.4	78	44.8	0	0	---	0.00	29.733 
04:30	51.3	51.3	51.3	79	45.0	0	0	---	0.00	29.733 
04:35	51.1	51.1	51.1	79	44.8	0	0	---	0.00	29.732 
04:40	51.1	51.1	51.1	80	45.1	0	0	---	0.00	29.731 
04:45	51.3	51.3	51.3	80	45.3	0	0	---	0.00	29.732 
04:50	51.4	51.4	51.4	80	45.4	0	0	---	0.00	29.731 
04:55	51.4	51.4	51.4	80	45.4	0	0	---	0.00	29.731 
05:00	51.6	51.6	51.6	80	45.6	0	0	---	0.00	29.729 
05:05	51.6	51.6	51.6	80	45.6	0	0	---	0.00	29.730 
05:10	51.7	51.7	51.7	81	46.1	0	0	---	0.00	29.732 
05:15	51.7	51.7	51.7	81	46.1	0	0	---	0.00	29.732 
05:20	52.0	52.0	52.0	80	46.0	0	0	---	0.00	29.734 
05:25	52.2	52.2	52.2	80	46.2	0	0	---	0.00	29.738 
05:30	52.2	52.2	52.2	80	46.2	0	0	---	0.00	29.740 
05:35	52.3	52.3	52.3	81	46.6	0	0	---	0.00	29.741 
05:40	52.5	52.5	52.5	81	46.8	0	0	---	0.00	29.734 
05:45	52.8	52.8	52.8	79	46.5	0	1	248	0.00	29.740 
05:50	52.9	52.9	52.9	78	46.2	0	1	248	0.00	29.745 
05:55	53.2	53.2	53.2	79	46.9	0	0	---	0.00	29.745 
06:00	53.2	53.2	53.2	78	46.5	0	0	---	0.00	29.747 
06:05	53.2	53.2	53.2	79	46.9	0	0	---	0.00	29.751 
06:10	53.2	53.2	53.2	79	46.9	0	0	---	0.00	29.753 
06:15	53.2	53.2	53.2	80	47.2	0	0	---	0.00	29.760 
06:20	53.2	53.2	53.2	80	47.2	0	0	---	0.00	29.761 
06:25	53.1	53.1	53.1	80	47.1	0	0	---	0.00	29.761 
06:30	53.1	53.1	53.1	80	47.1	0	0	---	0.00	29.763 
06:35	53.1	53.1	53.1	77	46.1	0	1	248	0.00	29.765 
06:40	53.3	53.3	53.3	77	46.3	0	0	---	0.00	29.760 
06:45	53.5	53.5	53.5	77	46.5	0	0	---	0.00	29.765 
06:50	53.8	53.8	53.8	78	47.1	0	0	---	0.00	29.763 
06:55	53.9	53.9	53.9	79	47.5	0	0	---	0.00	29.761 
07:00	54.1	54.1	54.1	80	48.1	0	0	---	0.00	29.761 
07:05	54.2	54.2	54.2	81	48.5	0	1	248	0.00	29.749 
07:10	54.2	54.2	54.2	80	48.2	0	0	---	0.00	29.751 
07:15	54.4	54.4	54.4	80	48.4	0	1	248	0.00	29.765 
07:20	54.5	54.5	54.5	80	48.5	0	2	248	0.00	29.748 
07:25	54.7	54.7	54.7	79	48.3	0	2	248	0.00	29.765 
07:30	55.0	55.0	55.0	80	48.9	0	0	---	0.00	29.749 
07:35	55.1	55.1	55.1	80	49.0	0	2	248	0.00	29.749 
07:40	55.4	55.4	55.4	79	49.0	0	3	248	0.00	29.747 
07:45	55.6	55.6	55.6	78	48.8	0	0	---	0.00	29.745 
07:50	55.7	55.7	55.7	78	48.9	0	1	248	0.00	29.750 
07:55	56.0	56.0	56.0	78	49.2	0	1	248	0.00	29.749 
08:00	56.5	56.5	56.5	77	49.4	0	1	248	0.00	29.735 
08:05	56.9	56.9	56.9	77	49.8	0	2	248	0.00	29.737 
08:10	57.2	57.2	57.2	77	50.1	0	1	248	0.00	29.750 
08:15	57.6	57.6	57.6	74	49.4	0	2	248	0.00	29.767 
08:20	58.1	58.1	58.1	74	49.9	0	0	---	0.00	29.769 
08:25	58.4	58.4	58.4	74	50.1	0	1	248	0.00	29.768 
08:30	58.9	58.9	58.9	74	50.6	0	1	248	0.00	29.735 
08:35	59.3	59.3	59.3	72	50.3	1	3	248	0.00	29.751 
08:40	59.8	59.8	59.8	71	50.4	0	2	248	0.00	29.748 
08:45	60.2	60.2	60.2	71	50.8	0	1	248	0.00	29.746 
08:50	60.5	60.5	60.5	70	50.7	1	3	248	0.00	29.759 
08:55	60.9	60.9	60.9	69	50.7	0	2	248	0.00	29.765 
09:00	61.0	61.0	61.0	67	50.0	1	4	248	0.00	29.764 
09:05	61.3	61.3	61.3	68	50.6	0	2	112	0.00	29.768 
09:10	61.3	61.3	61.3	67	50.2	1	3	112	0.00	29.769 
09:15	61.3	61.3	61.3	67	50.2	0	1	112	0.00	29.768 
09:20	61.3	61.3	61.3	67	50.2	0	2	112	0.00	29.771 
09:25	61.2	61.2	61.2	65	49.3	0	3	112	0.00	29.780 
09:30	61.0	61.0	61.0	65	49.1	0	1	112	0.00	29.774 
09:35	61.0	61.0	61.0	67	50.0	0	2	112	0.00	29.769 
09:40	61.0	61.0	61.0	66	49.6	0	2	112	0.00	29.775 
09:45	61.2	61.2	61.2	65	49.3	0	1	225	0.00	29.769 
09:50	61.3	61.3	61.3	65	49.4	0	3	180	0.00	29.775 
09:55	61.5	61.5	61.5	64	49.2	0	2	112	0.00	29.768 
10:00	61.8	61.8	61.8	64	49.5	0	1	112	0.00	29.767 
10:05	62.0	62.0	62.0	63	49.3	0	3	248	0.00	29.765 
10:10	62.0	62.0	62.0	62	48.8	0	2	248	0.00	29.756 
10:15	62.1	62.1	62.1	62	48.9	1	3	248	0.00	29.753 
10:20	62.0	62.0	62.0	62	48.8	1	4	248	0.00	29.763 
10:25	62.0	62.0	62.0	62	48.8	1	3	68	0.00	29.769 
10:30	62.0	62.0	62.0	64	49.7	1	3	68	0.00	29.768 
10:35	62.6	62.6	62.6	63	49.8	0	2	338	0.00	29.765 
10:40	63.1	63.1	63.1	64	50.7	1	5	270	0.00	29.763 
10:45	63.5	63.5	63.5	62	50.2	0	2	202	0.00	29.758 
10:50	64.3	64.3	64.3	63	51.4	0	2	202	0.00	29.758 
10:55	65.5	65.5	65.5	60	51.2	1	4	90	0.00	29.755 
11:00	65.5	65.5	65.5	60	51.2	1	4	292	0.00	29.755 
11:05	65.2	65.2	65.2	59	50.5	2	4	248	0.00	29.752 
11:10	65.6	65.6	65.6	64	53.1	1	2	248	0.00	29.750 
11:15	66.3	66.3	66.3	62	52.9	1	5	270	0.00	29.751 
11:20	66.0	66.0	66.0	58	50.8	2	4	270	0.00	29.750 
11:25	65.2	65.2	65.2	59	50.5	2	6	270	0.00	29.749 
11:30	64.5	64.5	64.5	62	51.2	2	5	270	0.00	29.751 
11:35	64.0	64.0	64.0	62	50.7	2	5	112	0.00	29.753 
11:40	63.9	63.9	63.9	64	51.5	1	4	112	0.00	29.758 
11:45	63.7	63.7	63.7	66	52.1	1	3	112	0.00	29.757 
11:50	63.5	63.5	63.5	63	50.7	1	3	112	0.00	29.754 
11:55	63.2	63.2	63.2	66	51.6	2	6	112	0.00	29.755 
12:00	62.9	62.9	62.9	65	50.9	1	3	248	0.00	29.754 
12:05	63.1	63.1	63.1	63	50.3	1	5	112	0.00	29.752 
12:10	63.1	63.1	63.1	65	51.1	1	3	112	0.00	29.754 
12:15	63.2	63.2	63.2	64	50.8	1	4	135	0.00	29.757 
12:20	64.0	64.0	64.0	64	51.6	1	4	248	0.00	29.752 
12:25	65.3	65.3	65.3	62	51.9	1	4	248	0.00	29.747 
12:30	65.5	65.5	65.5	57	49.9	2	4	135	0.00	29.744 
12:35	65.0	65.0	65.0	55	48.4	1	4	112	0.00	29.739 
12:40	65.5	65.5	65.5	58	50.3	2	5	90	0.00	29.745 
12:45	65.8	65.8	65.8	58	50.6	2	5	90	0.00	29.741 
12:50	65.8	65.8	65.8	59	51.1	3	10	112	0.00	29.737 
12:55	66.0	66.0	66.0	56	49.8	2	5	90	0.00	29.735 
13:00	66.4	66.4	66.4	57	50.7	2	5	112	0.00	29.734 
13:05	66.9	66.9	66.9	55	50.2	2	5	90	0.00	29.738 
13:10	66.9	66.9	66.9	54	49.7	2	6	90	0.00	29.735 
13:15	66.8	66.8	66.8	54	49.6	2	5	112	0.00	29.733 
13:20	66.3	66.3	66.3	53	48.6	3	5	112	0.00	29.732 
13:25	66.0	66.0	66.0	53	48.4	1	3	112	0.00	29.736 
13:30	66.0	66.0	66.0	53	48.4	1	4	112	0.00	29.737 
13:35	66.3	66.3	66.3	53	48.6	1	4	112	0.00	29.739 
13:40	66.6	66.6	66.6	55	49.9	1	4	90	0.00	29.735 
13:45	66.6	66.6	66.6	50	47.4	2	5	112	0.00	29.736 
13:50	66.4	66.4	66.4	50	47.2	1	4	90	0.00	29.739 
13:55	66.3	66.3	66.3	49	46.6	1	3	90	0.00	29.736 
14:00	65.6	65.6	65.6	52	47.5	1	3	90	0.00	29.735 
14:05	65.3	65.3	65.3	51	46.7	1	4	112	0.00	29.738 
14:10	65.2	65.2	65.2	52	47.1	1	4	112	0.00	29.742 
14:15	63.5	63.5	63.5	54	46.6	4	12	112	0.00	29.755 
14:20	60.4	60.4	60.4	60	46.4	4	14	270	0.00	29.769 
14:25	58.9	58.9	58.9	65	47.2	4	10	248	0.00	29.767 
14:30	57.8	57.8	57.8	71	48.5	4	12	248	0.00	29.761 
14:35	57.0	57.0	57.0	73	48.4	4	8	248	0.00	29.760 
14:40	56.7	56.7	56.7	75	48.9	4	11	248	0.00	29.757 
14:45	56.9	56.9	56.9	77	49.8	3	9	248	0.00	29.761 
14:50	57.0	57.0	57.0	77	49.9	2	6	248	0.00	29.760 
14:55	57.0	57.0	57.0	77	49.9	2	5	248	0.00	29.757 
15:00	57.5	57.5	57.5	77	50.3	2	6	248	0.00	29.759 
15:05	57.6	57.6	57.6	76	50.1	2	5	248	0.00	29.761 
15:10	57.8	57.8	57.8	77	50.6	1	3	248	0.00	29.764 
15:15	58.0	58.0	58.0	76	50.5	0	2	248	0.00	29.762 
15:20	58.0	58.0	58.0	76	50.5	0	2	248	0.00	29.763 
15:25	58.1	58.1	58.1	75	50.2	0	2	248	0.00	29.773 
15:30	58.3	58.3	58.3	74	50.0	0	1	248	0.00	29.770 
15:35	58.1	58.1	58.1	74	49.9	1	3	248	0.00	29.768 
15:40	58.1	58.1	58.1	75	50.2	0	2	248	0.00	29.767 
15:45	58.0	58.0	58.0	75	50.1	0	2	248	0.00	29.767 
15:50	58.0	58.0	58.0	74	49.8	0	1	248	0.00	29.771 
15:55	58.0	58.0	58.0	74	49.8	0	1	248	0.00	29.772 
16:00	58.0	58.0	58.0	74	49.8	0	1	248	0.00	29.770 
16:05	58.1	58.1	58.1	74	49.9	0	1	248	0.00	29.771 
16:10	58.3	58.3	58.3	74	50.0	0	1	248	0.00	29.775 
16:15	58.4	58.4	58.4	73	49.8	0	1	248	0.00	29.773 
16:20	58.7	58.7	58.7	73	50.1	0	0	---	0.00	29.773 
16:25	59.0	59.0	59.0	70	49.2	0	1	248	0.00	29.771 
16:30	59.2	59.2	59.2	69	49.0	0	1	248	0.00	29.769 
16:35	59.3	59.3	59.3	67	48.3	0	1	248	0.00	29.772 
16:40	59.5	59.5	59.5	66	48.1	1	3	248	0.00	29.772 
16:45	59.6	59.6	59.6	66	48.2	0	2	248	0.00	29.774 
16:50	59.8	59.8	59.8	66	48.4	0	3	248	0.00	29.774 
16:55	59.9	59.9	59.9	65	48.1	0	2	248	0.00	29.774 
17:00	59.9	59.9	59.9	65	48.1	1	4	248	0.00	29.775 
17:05	60.2	60.2	60.2	66	48.8	0	2	248	0.00	29.777 
17:10	60.4	60.4	60.4	65	48.6	0	2	248	0.00	29.779 
17:15	60.2	60.2	60.2	65	48.4	0	1	248	0.00	29.781 
17:20	59.9	59.9	59.9	65	48.1	0	2	248	0.00	29.785 
17:25	59.8	59.8	59.8	65	48.0	1	4	248	0.00	29.787 
17:30	59.8	59.8	59.8	65	48.0	0	2	248	0.00	29.787 
17:35	59.9	59.9	59.9	65	48.1	1	4	248	0.00	29.788 
17:40	59.9	59.9	59.9	65	48.1	0	2	248	0.00	29.788 
17:45	60.2	60.2	60.2	65	48.4	0	3	248	0.00	29.789 
17:50	60.2	60.2	60.2	65	48.4	0	1	248	0.00	29.789 
17:55	60.1	60.1	60.1	66	48.7	0	2	248	0.00	29.791 
18:00	59.9	59.9	59.9	67	48.9	0	1	0	0.00	29.792 
18:05	59.6	59.6	59.6	67	48.6	0	1	0	0.00	29.790 
18:10	59.5	59.5	59.5	67	48.5	0	1	0	0.00	29.789 
18:15	59.3	59.3	59.3	69	49.1	0	1	0	0.00	29.790 
18:20	59.2	59.2	59.2	70	49.4	0	1	0	0.00	29.792 
18:25	59.2	59.2	59.2	71	49.8	0	0	---	0.00	29.797 
18:30	59.2	59.2	59.2	70	49.4	0	0	---	0.00	29.795 
18:35	59.2	59.2	59.2	70	49.4	0	1	0	0.00	29.791 
18:40	59.0	59.0	59.0	71	49.6	0	1	0	0.00	29.789 
18:45	59.0	59.0	59.0	71	49.6	0	0	---	0.00	29.790 
18:50	59.0	59.0	59.0	72	50.0	0	1	0	0.00	29.799 
18:55	59.0	59.0	59.0	72	50.0	0	1	0	0.00	29.803 
19:00	59.0	59.0	59.0	72	50.0	0	1	0	0.00	29.804 
19:05	59.0	59.0	59.0	70	49.2	1	4	248	0.00	29.801 
19:10	58.9	58.9	58.9	73	50.3	2	5	248	0.00	29.802 
19:15	58.4	58.4	58.4	74	50.1	2	7	248	0.00	29.802 
19:20	58.1	58.1	58.1	75	50.2	1	6	248	0.00	29.805 
19:25	57.8	57.8	57.8	75	49.9	1	3	248	0.00	29.804 
19:30	57.5	57.5	57.5	75	49.6	1	4	248	0.00	29.803 
19:35	57.3	57.3	57.3	75	49.4	0	2	248	0.00	29.803 
19:40	57.0	57.0	57.0	74	48.8	1	4	270	0.00	29.800 
19:45	56.9	56.9	56.9	74	48.7	1	4	270	0.00	29.800 
19:50	56.9	56.9	56.9	75	49.1	1	4	248	0.00	29.801 
19:55	56.7	56.7	56.7	75	48.9	0	3	248	0.00	29.802 
20:00	56.6	56.6	56.6	75	48.8	1	4	248	0.00	29.803 
20:05	56.6	56.6	56.6	75	48.8	0	1	248	0.00	29.803 
20:10	56.5	56.5	56.5	76	49.0	0	2	248	0.00	29.808 
20:15	56.5	56.5	56.5	76	49.0	0	2	248	0.00	29.808 
20:20	56.5	56.5	56.5	76	49.0	0	1	248	0.00	29.809 
20:25	56.3	56.3	56.3	77	49.2	0	0	---	0.00	29.812 
20:30	56.3	56.3	56.3	77	49.2	0	1	248	0.00	29.813 
20:35	56.2	56.2	56.2	78	49.4	0	1	248	0.00	29.812 
20:40	56.0	56.0	56.0	79	49.6	0	1	248	0.00	29.811 
20:45	56.0	56.0	56.0	80	49.9	0	0	---	0.00	29.810 
20:50	55.9	55.9	55.9	81	50.2	0	0	---	0.00	29.811 
20:55	55.7	55.7	55.7	82	50.3	0	1	248	0.00	29.812 
21:00	55.6	55.6	55.6	82	50.2	0	1	248	0.00	29.815 
21:05	55.4	55.4	55.4	82	50.0	0	1	248	0.00	29.815 
21:10	55.4	55.4	55.4	82	50.0	0	1	248	0.00	29.818 
21:15	55.4	55.4	55.4	82	50.0	0	1	248	0.00	29.818 
21:20	55.4	55.4	55.4	82	50.0	0	1	248	0.00	29.818 
21:25	55.4	55.4	55.4	82	50.0	0	0	---	0.00	29.817 
21:30	55.4	55.4	55.4	82	50.0	0	1	248	0.00	29.818 
21:35	55.4	55.4	55.4	82	50.0	0	2	248	0.00	29.818 
21:40	55.4	55.4	55.4	82	50.0	0	1	248	0.00	29.820 
21:45	55.4	55.4	55.4	81	49.7	0	3	248	0.00	29.818 
21:50	55.4	55.4	55.4	81	49.7	0	1	248	0.00	29.816 
21:55	55.4	55.4	55.4	81	49.7	0	1	292	0.00	29.814 
22:00	55.4	55.4	55.4	81	49.7	0	2	292	0.00	29.816 
22:05	55.4	55.4	55.4	81	49.7	0	2	292	0.00	29.813 
22:10	55.4	55.4	55.4	81	49.7	0	1	292	0.00	29.814 
22:15	55.4	55.4	55.4	81	49.7	0	0	---	0.00	29.814 
22:20	55.4	55.4	55.4	81	49.7	0	0	---	0.00	29.813 
22:25	55.4	55.4	55.4	81	49.7	0	1	292	0.00	29.811 
22:30	55.4	55.4	55.4	81	49.7	0	1	292	0.00	29.810 
22:35	55.3	55.3	55.3	81	49.6	0	1	292	0.00	29.805 
22:40	55.3	55.3	55.3	81	49.6	0	0	---	0.00	29.801 
22:45	55.3	55.3	55.3	81	49.6	0	0	---	0.00	29.799 
22:50	55.3	55.3	55.3	82	49.9	0	1	292	0.00	29.799 
22:55	55.1	55.1	55.1	82	49.7	0	1	292	0.00	29.801 
23:00	55.1	55.1	55.1	81	49.4	0	1	292	0.00	29.800 
23:05	55.0	55.0	55.0	81	49.3	0	1	292	0.00	29.799 
23:10	54.8	54.8	54.8	81	49.1	0	1	292	0.00	29.800 
23:15	54.8	54.8	54.8	81	49.1	0	1	292	0.00	29.800 
23:20	54.7	54.7	54.7	82	49.3	0	1	292	0.00	29.801 
23:25	54.5	54.5	54.5	82	49.1	0	1	292	0.00	29.800 
23:30	54.2	54.2	54.2	82	48.8	0	0	---	0.00	29.801 
23:35	54.1	54.1	54.1	83	49.1	0	1	292	0.00	29.800 
23:40	53.9	53.9	53.9	83	48.9	0	1	292	0.00	29.795 
23:45	53.8	53.8	53.8	84	49.1	0	1	292	0.00	29.789 
23:50	53.8	53.8	53.8	84	49.1	0	1	292	0.00	29.787 
23:55	53.6	53.6	53.6	84	48.9	0	0	---	0.00	29.794 

CoCoRaHS
IN-AL-39
A2 Web Hosting
Creative Commons License
GoDaddy
Look for:

loaded 2017-12-13 19:54:59 • last modified 2010-11-18 10:43:29
Privacy PolicyDisclaimer
• wx.awcolley.com is powered by PmWiki v.2002016 •
• all content (unless otherwise noted) © 2017 A W Colley